• Join FlightAware (Why Join?)
  • Login
  • US Flag 
03:21AM EDT


 

Airport Tracker/Info


-or-


 

Live Flight TrackerFlight Track Log ✈ DAL268 ✈ 13-Jun-2013 ✈ KSFO - KJFK

Flight Track Log - Related Links

Times and Time Zones

All times are in EDT time to prevent confusion due to time zone crossing. See the DAL268 flight status page for this flight to view local times or setup timezone preferences in your user account.

Time Position Orientation Groundspeed Altitude Reporting Facility
EDT Latitude Longitude Course Direction KTS MPH feet Rate Location/Type
02:45PM 37.6500 -122.3500 38° Northeast 178 205 1,800  Level Northern Cal TRACON
02:46PM 37.7000 -122.2833 47° Northeast 237 273 3,800 2,460 Climbing Northern Cal TRACON
02:49PM 37.6981 -122.2853 38° Northeast  Level FlightAware Approximate
02:49PM 37.8211 -122.1333 44° Northeast 273 314 10,300  Level Oakland Center
02:50PM 37.8039 -122.1794 38° Northeast  Level FlightAware Approximate
02:50PM 37.8933 -122.0669 36° Northeast 319 367 11,600  Level Oakland Center
02:51PM 37.9098 -122.0735 38° Northeast  Level FlightAware Approximate
02:51PM 37.9758 -121.9875 37° Northeast 371 427 13,300  Level Oakland Center
02:52PM 38.0650 -121.9061 36° Northeast 394 453 15,600 1,980 Climbing Oakland Center
02:53PM 38.1558 -121.8211 36° Northeast 407 468 17,400 1,740 Climbing Oakland Center
02:54PM 38.2708 -121.7125 37° Northeast 431 496 19,200 1,680 Climbing Oakland Center
02:55PM 38.3708 -121.6186 36° Northeast 448 516 20,900 1,500 Climbing Oakland Center
02:56PM 38.4617 -121.5189 41° Northeast 469 540 22,300 1,260 Climbing Oakland Center
02:57PM 38.5514 -121.3681 53° Northeast 494 568 23,600 1,140 Climbing Oakland Center
02:58PM 38.6358 -121.2167 54° Northeast 517 595 24,700 1,140 Climbing Oakland Center
02:59PM 38.7264 -121.0650 53° Northeast 527 606 26,000 1,140 Climbing Oakland Center
03:00PM 38.8156 -120.9117 53° Northeast 536 617 27,100 1,140 Climbing Oakland Center
03:01PM 38.9056 -120.7550 54° Northeast 543 625 28,400 1,500 Climbing Oakland Center
03:02PM 39.0139 -120.5672 53° Northeast 544 626 30,200 1,500 Climbing Oakland Center
03:03PM 39.1028 -120.4125 53° Northeast 539 620 31,600 1,140 Climbing Oakland Center
03:04PM 39.1925 -120.2578 53° Northeast 539 620 32,600 900 Climbing Oakland Center
03:05PM 39.2858 -120.0947 53° Northeast 545 627 33,500 1,020 Climbing Oakland Center
03:06PM 39.3750 -119.9350 54° Northeast 546 628 34,800 720 Climbing Oakland Center
03:07PM 39.4636 -119.7783 54° Northeast 540 621 35,000 60 Climbing Oakland Center
03:08PM 39.5528 -119.6186 54° Northeast 545 627 35,000  Level Oakland Center
03:09PM 39.6433 -119.4569 54° Northeast 550 633 35,000  Level Oakland Center
03:10PM 39.7336 -119.2922 54° Northeast 554 638 35,000  Level Oakland Center
03:11PM 39.8256 -119.1286 54° Northeast 555 639 35,000  Level Oakland Center
03:12PM 39.9156 -118.9642 54° Northeast 553 636 35,000  Level Oakland Center
03:13PM 40.0042 -118.7997 55° Northeast 551 634 35,000  Level Oakland Center
03:14PM 40.1092 -118.6036 55° Northeast 547 629 35,000  Level Oakland Center
03:15PM 40.1697 -118.4186 67° East 551 634 35,000  Level Oakland Center
03:16PM 40.2083 -118.2781 70° East 549 632 35,000  Level Salt Lake Center
03:17PM 40.2650 -118.0669 71° East 551 634 35,000  Level Salt Lake Center
03:18PM 40.3144 -117.8839 70° East 553 636 35,000  Level Salt Lake Center
03:19PM 40.3725 -117.6686 70° East 559 643 35,000  Level Salt Lake Center
03:20PM 40.4219 -117.4814 71° East 564 649 35,000  Level Salt Lake Center
03:21PM 40.4717 -117.2947 71° East 564 649 35,000  Level Salt Lake Center
03:22PM 40.5303 -117.0742 71° East 566 651 35,000  Level Salt Lake Center
03:23PM 40.5864 -116.8842 69° East 571 657 35,000  Level Salt Lake Center
03:26PM 40.7036 -116.5719 64° Northeast  Level FlightAware Approximate
03:28PM 40.8867 -116.1058 63° Northeast 573 659 35,000  Level Salt Lake Center
03:29PM 40.9547 -115.9281 63° Northeast 567 652 35,000  Level Salt Lake Center
03:30PM 41.0319 -115.7222 64° Northeast 561 646 35,000  Level Salt Lake Center
03:31PM 41.0978 -115.5469 63° Northeast 557 641 35,000  Level Salt Lake Center
03:32PM 41.1739 -115.3419 64° Northeast 555 639 35,000  Level Salt Lake Center
03:33PM 41.1401 -115.4072 63° Northeast  Level FlightAware Approximate
03:33PM 41.2392 -115.1667 64° Northeast 553 636 35,000  Level Salt Lake Center
03:34PM 41.3142 -114.9619 64° Northeast 552 635 35,000  Level Salt Lake Center
03:35PM 41.3789 -114.7881 64° Northeast 555 639 35,000  Level Salt Lake Center
03:36PM 41.4458 -114.6033 64° Northeast 557 641 35,000  Level Salt Lake Center
03:37PM 41.5133 -114.4175 64° Northeast 557 641 35,000  Level Salt Lake Center
03:38PM 41.5947 -114.1936 64° Northeast 560 644 35,000  Level Salt Lake Center
03:39PM 41.6603 -114.0061 65° Northeast 558 642 35,000  Level Salt Lake Center
03:40PM 41.7253 -113.8242 64° Northeast 548 631 35,000  Level Salt Lake Center
03:41PM 41.7894 -113.6428 65° Northeast 540 621 35,000  Level Salt Lake Center
03:42PM 41.8542 -113.4572 65° Northeast 547 629 35,000  Level Salt Lake Center
03:43PM 41.9186 -113.2744 65° Northeast 544 626 35,000  Level Salt Lake Center
03:44PM 41.9817 -113.0892 65° Northeast 545 627 35,000  Level Salt Lake Center
03:45PM 42.0575 -112.8683 65° Northeast 541 623 35,000  Level Salt Lake Center
03:46PM 42.1206 -112.6836 65° Northeast 543 625 35,000  Level Salt Lake Center
03:47PM 42.1833 -112.4975 65° Northeast 544 626 35,000  Level Salt Lake Center
03:48PM 42.2456 -112.3094 66° East 548 631 35,000  Level Salt Lake Center
03:49PM 42.3069 -112.1217 66° East 547 629 35,000  Level Salt Lake Center
03:50PM 42.3683 -111.9336 66° East 546 628 35,000  Level Salt Lake Center
03:51PM 42.4411 -111.7061 66° East 548 631 35,000  Level Salt Lake Center
03:52PM 42.5011 -111.5181 67° East 545 627 35,000  Level Salt Lake Center
03:53PM 42.5614 -111.3300 66° East 543 625 35,000  Level Salt Lake Center
03:55PM 42.6203 -111.1417 67° East 542 624 35,000  Level Salt Lake Center
03:56PM 42.6839 -110.9375 67° East 547 629 35,000  Level Salt Lake Center
03:57PM 42.7406 -110.7542 67° East 550 633 35,000  Level Salt Lake Center
03:58PM 42.8064 -110.5411 67° East 549 632 35,000  Level Salt Lake Center
03:59PM 42.8619 -110.3597 67° East 546 628 35,000  Level Salt Lake Center
04:00PM 42.9267 -110.1450 68° East 549 632 35,000  Level Salt Lake Center
04:01PM 42.9822 -109.9603 68° East 550 633 35,000  Level Salt Lake Center
04:02PM 43.0461 -109.7481 68° East 557 641 35,000  Level Salt Lake Center
04:03PM 43.1019 -109.5589 68° East 560 644 35,000  Level Salt Lake Center
04:04PM 43.1664 -109.3397 68° East 557 641 35,000  Level Salt Lake Center
04:05PM 43.2217 -109.1483 68° East 561 646 35,000  Level Salt Lake Center
04:06PM 43.2853 -108.9311 68° East 553 636 35,000  Level Salt Lake Center
04:07PM 43.3389 -108.7442 68° East 548 631 35,000  Level Salt Lake Center
04:08PM 43.4017 -108.5225 69° East 554 638 35,000  Level Salt Lake Center
04:09PM 43.4544 -108.3328 69° East 556 640 35,000  Level Salt Lake Center
04:10PM 43.4997 -108.1075 74° East 549 632 35,000  Level Salt Lake Center
04:11PM 43.5211 -107.9117 81° East 541 623 35,000  Level Salt Lake Center
04:12PM 43.5478 -107.6828 81° East 541 623 35,000  Level Salt Lake Center
04:13PM 43.5692 -107.4933 81° East 528 608 35,000  Level Salt Lake Center
04:14PM 43.5894 -107.3064 81° East 519 597 35,000  Level Salt Lake Center
04:15PM 43.6100 -107.1019 82° East 517 595 35,000  Level Salt Lake Center
04:16PM 43.6331 -106.8797 82° East 522 601 35,000  Level Salt Lake Center
04:17PM 43.6531 -106.6853 82° East 530 610 35,000  Level Salt Lake Center
04:18PM 43.6761 -106.4611 82° East 529 609 35,000  Level Salt Lake Center
04:19PM 43.6939 -106.2736 82° East 519 597 35,000  Level Salt Lake Center
04:20PM 43.7158 -106.0500 82° East 522 601 35,000  Level Denver Center
04:21PM 43.7347 -105.8561 82° East 529 609 35,000  Level Denver Center
04:22PM 43.7572 -105.6272 82° East 534 615 35,000  Level Denver Center
04:23PM 43.7758 -105.4300 82° East 537 618 35,000  Level Denver Center
04:25PM 43.7983 -105.2019 82° East 537 618 35,000  Level Denver Center
04:26PM 43.8153 -105.0078 83° East 534 615 35,000  Level Denver Center
04:27PM 43.8350 -104.7842 83° East 529 609 35,000  Level Denver Center
04:28PM 43.8519 -104.5922 83° East 526 605 35,000  Level Denver Center
04:29PM 43.8681 -104.4014 83° East 524 603 35,000  Level Denver Center
04:30PM 43.8864 -104.1828 83° East 517 595 35,000  Level Denver Center
04:31PM 43.9019 -103.9908 84° East 521 600 35,000  Level Denver Center
04:32PM 43.9200 -103.7675 84° East 521 600 35,000  Level Denver Center
04:33PM 43.9361 -103.5761 83° East 522 601 35,000  Level Denver Center
04:34PM 43.9517 -103.3519 84° East 523 602 35,000  Level Denver Center
04:35PM 43.9672 -103.1614 83° East 521 600 35,000  Level Denver Center
04:36PM 44.0053 -102.9381 77° East 540 621 35,000  Level Denver Center
04:37PM 44.0686 -102.7486 65° Northeast 536 617 35,000  Level Denver Center
04:38PM 44.1283 -102.5569 66° East 540 621 35,000  Level Denver Center
04:39PM 44.1903 -102.3667 66° East 540 621 35,000  Level Denver Center
04:40PM 44.2525 -102.1772 65° Northeast 538 619 35,000  Level Denver Center
04:41PM 44.3153 -101.9861 65° Northeast 542 624 35,000  Level Denver Center
04:42PM 44.3897 -101.7578 65° Northeast 540 621 35,000  Level Denver Center
04:43PM 44.4519 -101.5664 65° Northeast 540 621 35,000  Level Denver Center
04:44PM 44.5128 -101.3736 66° East 541 623 35,000  Level Denver Center
04:44PM 44.5242 -101.3369 66° East 540 621 35,000  Level Minneapolis Center
04:45PM 44.5828 -101.1511 66° East 534 615 35,000  Level Minneapolis Center
04:47PM 44.6406 -100.9686 66° East 523 602 35,000  Level Minneapolis Center
04:48PM 44.7103 -100.7483 66° East 517 595 35,000  Level Minneapolis Center
04:49PM 44.7678 -100.5619 66° East 519 597 35,000  Level Minneapolis Center
04:50PM 44.8250 -100.3753 67° East 520 598 35,000  Level Minneapolis Center
04:51PM 44.8822 -100.1872 67° East 523 602 35,000  Level Minneapolis Center
04:52PM 44.9369 -100.0022 67° East 523 602 35,000  Level Minneapolis Center
04:53PM 44.9986 -99.7772 69° East 533 613 35,000  Level Minneapolis Center
04:54PM 45.0347 -99.5819 75° East 523 602 35,000  Level Minneapolis Center
04:55PM 45.0739 -99.3869 74° East 519 597 35,000  Level Minneapolis Center
04:56PM 45.1133 -99.1908 74° East 519 597 35,000  Level Minneapolis Center
04:57PM 45.1608 -98.9558 74° East 519 597 35,000  Level Minneapolis Center
04:58PM 45.2003 -98.7583 74° East 521 600 35,000  Level Minneapolis Center
04:59PM 45.2389 -98.5608 74° East 521 600 35,000  Level Minneapolis Center
05:00PM 45.2769 -98.3628 75° East 521 600 35,000  Level Minneapolis Center
05:01PM 45.3139 -98.1644 75° East 521 600 35,000  Level Minneapolis Center
05:02PM 45.3547 -97.9375 76° East 522 601 35,000  Level Minneapolis Center
05:03PM 45.3897 -97.7383 76° East 520 598 35,000  Level Minneapolis Center
05:04PM 45.4256 -97.5386 76° East 521 600 35,000  Level Minneapolis Center
05:05PM 45.4606 -97.3400 76° East 519 597 35,000  Level Minneapolis Center
05:06PM 45.4947 -97.1378 76° East 522 601 35,000  Level Minneapolis Center
05:07PM 45.5364 -96.8994 76° East 518 596 35,000  Level Minneapolis Center
05:08PM 45.5703 -96.6969 76° East 522 601 35,000  Level Minneapolis Center
05:09PM 45.6036 -96.4975 76° East 518 596 35,000  Level Minneapolis Center
05:11PM 45.6433 -96.2566 77° East  Level FlightAware Approximate
05:11PM 45.6706 -96.0922 77° East 523 602 35,000  Level Minneapolis Center
05:12PM 45.7028 -95.8914 77° East 520 598 35,000  Level Minneapolis Center
05:13PM 45.7364 -95.6886 77° East 523 602 35,000  Level Minneapolis Center
05:14PM 45.7742 -95.4475 77° East 518 596 35,000  Level Minneapolis Center
05:15PM 45.8050 -95.2461 78° East 518 596 35,000  Level Minneapolis Center
05:17PM 45.8358 -95.0456 77° East 518 596 35,000  Level Minneapolis Center
05:18PM 45.8647 -94.8567 78° East 516 594 35,000  Level Minneapolis Center
05:19PM 45.9008 -94.6136 78° East 520 598 35,000  Level Minneapolis Center
05:20PM 45.9311 -94.4125 78° East 518 596 35,000  Level Minneapolis Center
05:21PM 45.9597 -94.2125 78° East 514 592 35,000  Level Minneapolis Center
05:22PM 45.9886 -94.0100 78° East 517 595 35,000  Level Minneapolis Center
05:23PM 46.0169 -93.8067 79° East 518 596 35,000  Level Minneapolis Center
05:24PM 46.0450 -93.6072 78° East 514 592 35,000  Level Minneapolis Center
05:25PM 46.0778 -93.3661 79° East 513 590 35,000  Level Minneapolis Center
05:26PM 46.1047 -93.1656 79° East 512 589 35,000  Level Minneapolis Center
05:27PM 46.1317 -92.9658 79° East 510 587 35,000  Level Minneapolis Center
05:28PM 46.1575 -92.7683 79° East 506 582 35,000  Level Minneapolis Center
05:29PM 46.1836 -92.5736 79° East 501 577 35,000  Level Minneapolis Center
05:30PM 46.2106 -92.3539 80° East 500 575 35,000  Level Minneapolis Center
05:31PM 46.2075 -92.1469 91° East 514 592 35,000  Level Minneapolis Center
05:32PM 46.1953 -91.9281 95° East 507 583 35,000  Level Minneapolis Center
05:33PM 46.1828 -91.7217 95° East 513 590 35,000  Level Minneapolis Center
05:34PM 46.1681 -91.4967 95° East 511 588 35,000  Level Minneapolis Center
05:35PM 46.1550 -91.2933 95° East 511 588 35,000  Level Minneapolis Center
05:36PM 46.1414 -91.0914 95° East 508 585 35,000  Level Minneapolis Center
05:37PM 46.1264 -90.8900 96° East 507 583 35,000  Level Minneapolis Center
05:38PM 46.1128 -90.6892 96° East 506 582 35,000  Level Minneapolis Center
05:39PM 46.0969 -90.4886 96° East 505 581 35,000  Level Minneapolis Center
05:40PM 46.0789 -90.2467 96° East 506 582 35,000  Level Minneapolis Center
05:41PM 46.0622 -90.0461 97° East 506 582 35,000  Level Minneapolis Center
05:42PM 46.0469 -89.8475 96° East 502 578 35,000  Level Minneapolis Center
05:43PM 46.0303 -89.6386 96° East 510 587 35,000  Level Minneapolis Center
05:44PM 46.0139 -89.4344 97° East 513 590 35,000  Level Minneapolis Center
05:45PM 45.9964 -89.2303 97° East 515 593 35,000 -60 Level Minneapolis Center
05:47PM 45.9786 -89.0281 97° East 513 590 34,900  Descending Minneapolis Center
05:48PM 45.9592 -88.8075 97° East 513 590 35,000  Climbing Minneapolis Center
05:49PM 45.9419 -88.6067 97° East 509 586 35,000  Level Minneapolis Center
05:50PM 45.9197 -88.3692 98° East 504 580 35,000  Level Minneapolis Center
05:51PM 45.9008 -88.1725 98° East 501 577 35,000 -60 Level Minneapolis Center
05:52PM 45.8847 -87.9933 97° East 496 571 34,900 -60 Descending Minneapolis Center
05:53PM 45.8647 -87.7994 98° East 493 567 34,900  Level Minneapolis Center
05:54PM 45.8411 -87.5656 98° East 492 566 35,000  Climbing Minneapolis Center
05:55PM 45.8219 -87.3700 98° East 495 570 35,000 -60 Level Minneapolis Center
05:56PM 45.8011 -87.1772 99° East 492 566 34,900 -60 Descending Minneapolis Center
05:57PM 45.7808 -86.9842 98° East 490 564 34,900  Level Minneapolis Center
05:58PM 45.7606 -86.7947 99° East 483 556 35,000  Climbing Minneapolis Center
05:59PM 45.7406 -86.6069 99° East 479 551 34,900  Descending Minneapolis Center
06:00PM 45.7153 -86.3800 99° East 479 551 35,000  Climbing Minneapolis Center
06:01PM 45.6947 -86.1928 99° East 476 548 35,000  Level Minneapolis Center
06:02PM 45.6725 -86.0072 100° East 473 544 35,000 -60 Level Minneapolis Center
06:03PM 45.6517 -85.8219 99° East 472 543 34,900  Descending Minneapolis Center
06:04PM 45.6297 -85.6367 100° East 472 543 35,000  Climbing Minneapolis Center
06:05PM 45.6083 -85.4511 99° East 472 543 34,900 -60 Descending Minneapolis Center
06:06PM 45.5817 -85.2303 100° East 471 542 34,900  Level Minneapolis Center
06:07PM 45.5586 -85.0436 100° East 474 545 34,900  Level Minneapolis Center
06:08PM 45.5353 -84.8572 100° East 477 549 35,000  Climbing Minneapolis Center
06:09PM 45.5122 -84.6717 100° East 476 548 35,000  Level Minneapolis Center
06:10PM 45.4886 -84.4850 100° East 477 549 35,000  Level Minneapolis Center
06:11PM 45.4653 -84.2997 100° East 477 549 35,000 -60 Level Minneapolis Center
06:12PM 45.4411 -84.1131 100° East 478 550 34,900 -60 Descending Minneapolis Center
06:13PM 45.4108 -83.8911 101° East 478 550 34,900  Level Minneapolis Center
06:14PM 45.3858 -83.7067 101° East 477 549 34,900  Level Minneapolis Center
06:16PM 45.3608 -83.5244 101° East 475 547 35,000  Climbing Minneapolis Center
06:17PM 45.3350 -83.3400 101° East 474 545 35,000  Level Minneapolis Center
06:18PM 45.3094 -83.1553 101° East 476 548 35,000  Level Minneapolis Center
06:18PM 45.2667 -83.0000 111° Southeast 480 552 35,000  Level Toronto Center
06:19PM 45.2500 -82.8000 97° East 480 552 35,000  Level Toronto Center
06:20PM 45.2167 -82.6167 104° East 480 552 35,000  Level Toronto Center
06:21PM 45.1667 -82.4500 113° Southeast 480 552 35,000  Level Toronto Center
06:22PM 45.1167 -82.2833 113° Southeast 480 552 35,000  Level Toronto Center
06:23PM 45.0833 -82.0833 103° East 480 552 35,000  Level Toronto Center
06:24PM 45.0500 -81.9000 104° East 480 552 35,000  Level Toronto Center
06:25PM 45.0167 -81.7333 106° East 480 552 35,000  Level Toronto Center
06:26PM 44.9667 -81.5333 109° East 480 552 35,000  Level Toronto Center
06:27PM 44.9333 -81.3833 107° East 480 552 35,000  Level Toronto Center
06:28PM 44.8833 -81.1833 109° East 480 552 35,000  Level Toronto Center
06:29PM 44.8500 -81.0000 104° East 490 564 35,000  Level Toronto Center
06:30PM 44.8167 -80.8333 106° East 490 564 35,000  Level Toronto Center
06:31PM 44.7667 -80.6500 111° Southeast 490 564 35,000  Level Toronto Center
06:32PM 44.7333 -80.4500 103° East 480 552 35,000  Level Toronto Center
06:33PM 44.6833 -80.2667 109° East 490 564 35,000  Level Toronto Center
06:34PM 44.6748 -80.2138 109° East  Level FlightAware Approximate
06:34PM 44.6500 -80.1000 106° East 490 564 35,000  Level Toronto Center
06:35PM 44.6000 -79.9167 111° Southeast 490 564 35,000  Level Toronto Center
06:36PM 44.5667 -79.7333 104° East 490 564 35,000  Level Toronto Center
06:37PM 44.5167 -79.5667 113° Southeast 480 552 35,000  Level Toronto Center
06:38PM 44.4667 -79.3833 111° Southeast 480 552 35,000  Level Toronto Center
06:39PM 44.4167 -79.2167 113° Southeast 480 552 35,000  Level Toronto Center
06:40PM 44.3833 -79.0500 106° East 480 552 35,000  Level Toronto Center
06:41PM 44.3333 -78.8667 111° Southeast 480 552 35,000  Level Toronto Center
06:42PM 44.2833 -78.6833 111° Southeast 480 552 35,000  Level Toronto Center
06:43PM 44.2333 -78.5000 111° Southeast 480 552 35,000  Level Toronto Center
06:44PM 44.1833 -78.3333 113° Southeast 490 564 35,000  Level Toronto Center
06:45PM 44.1333 -78.1500 111° Southeast 490 564 35,000  Level Toronto Center
06:46PM 44.0833 -77.9833 113° Southeast 490 564 35,000  Level Toronto Center
06:47PM 44.0333 -77.8000 111° Southeast 490 564 35,000  Level Toronto Center
06:48PM 43.9833 -77.6167 111° Southeast 490 564 35,000  Level Toronto Center
06:49PM 43.9500 -77.4500 105° East 490 564 35,000  Level Toronto Center
06:50PM 43.8833 -77.2667 117° Southeast 490 564 35,000  Level Toronto Center
06:51PM 43.8333 -77.1167 115° Southeast 490 564 35,000  Level Toronto Center
06:52PM 43.7833 -76.9000 108° East 500 575 35,000  Level Toronto Center
06:53PM 43.7333 -76.7500 115° Southeast 500 575 35,000  Level Toronto Center
06:55PM 43.6381 -76.5919 130° Southeast 464 534 35,000  Level Boston Center
06:56PM 43.5172 -76.4692 144° Southeast 452 520 35,000 -60 Level Boston Center
06:57PM 43.4089 -76.4075 158° South 437 503 34,900 -60 Descending Boston Center
06:58PM 43.3008 -76.3406 156° South 431 496 34,900  Level Boston Center
06:59PM 43.2006 -76.2800 156° South 413 475 34,900  Level Boston Center
07:00PM 43.1028 -76.2169 155° Southeast 400 460 34,900  Level Boston Center
07:01PM 43.0006 -76.1539 156° South 400 460 34,900  Level Boston Center
07:02PM 42.8983 -76.0881 155° Southeast 400 460 35,000 -120 Climbing Boston Center
07:03PM 42.8064 -76.0289 155° Southeast 400 460 34,700 -780 Descending Boston Center
07:04PM 42.7061 -75.9722 157° South 400 460 33,500 -900 Descending Boston Center
07:05PM 42.6017 -75.9097 156° South 400 460 33,000 -300 Descending Boston Center
07:06PM 42.5017 -75.8422 154° Southeast 400 460 32,900  Descending Boston Center
07:07PM 42.4264 -75.7058 127° Southeast 413 475 33,000 -180 Climbing Boston Center
07:08PM 42.3681 -75.5567 118° Southeast 427 491 32,600 -960 Descending Boston Center
07:09PM 42.3094 -75.4078 118° Southeast 439 505 31,100 -1,380 Descending Boston Center
07:10PM 42.2489 -75.2478 117° Southeast 459 528 29,900 -1,140 Descending Boston Center
07:11PM 42.1858 -75.0992 120° Southeast 464 534 28,900 -960 Descending Boston Center
07:12PM 42.1247 -74.9483 119° Southeast 469 540 28,000 -540 Descending Boston Center
07:13PM 42.0633 -74.7975 119° Southeast 464 534 27,900  Descending Boston Center
07:14PM 42.0039 -74.6417 117° Southeast 464 534 28,000  Climbing Boston Center
07:15PM 41.9419 -74.4917 119° Southeast 464 534 28,000  Level Boston Center
07:16PM 41.9078 -74.3092 104° East 449 517 28,000 -240 Level Boston Center
07:17PM 41.9231 -74.1283 83° East 460 529 27,600 -540 Descending Boston Center
07:18PM 41.9339 -73.9497 85° East 466 536 27,000 -900 Descending Boston Center
07:19PM 41.9256 -73.7794 94° East 461 531 25,900 -1,080 Descending Boston Center
07:20PM 41.8647 -73.6361 120° Southeast 429 494 24,900 -960 Descending Boston Center
07:21PM 41.7911 -73.5036 127° Southeast 429 494 24,000 -900 Descending Boston Center
07:22PM 41.6892 -73.4658 165° South 390 449 23,100 -960 Descending Boston Center
07:23PM 41.6072 -73.5367 213° Southwest 329 379 22,100 -1,080 Descending Boston Center
07:24PM 41.5603 -73.6525 242° Southwest 288 331 21,000 -840 Descending Boston Center
07:25PM 41.4864 -73.8339 242° Southwest 362 417 20,000 -420 Descending New York Center
07:26PM 41.4375 -73.9481 240° Southwest 351 404 20,000  Level New York Center
07:27PM 41.3844 -74.0589 237° Southwest 356 410 20,000  Level New York Center
07:28PM 41.3053 -74.1350 216° Southwest 356 410 20,000 -60 Level New York Center
07:29PM 41.2122 -74.1883 203° Southwest 356 410 19,900 -240 Descending New York Center
07:30PM 41.1122 -74.1886 180° South 351 404 19,600 -480 Descending New York Center
07:31PM 41.0167 -74.1667 170° South 362 417 19,100 -660 Descending New York TRACON
07:32PM 40.9333 -74.1167 156° South 342 394 18,400 -1,080 Descending New York TRACON
07:33PM 40.8667 -74.0167 131° Southeast 340 391 17,000 -1,200 Descending New York TRACON
07:34PM 40.8167 -73.9167 123° Southeast 350 403 16,000 -1,140 Descending New York TRACON
07:35PM 40.7667 -73.8000 119° Southeast 342 394 14,800 -1,200 Descending New York TRACON